Impacts TAF Board INFO
FOR SITUATIONAL AWARENESS. NOT TO BE USED FOR FLIGHT PLANNING PURPOSES.
IDs:

KJFK - New York/Kennedy Int, NY, US

Issued at 1339 UTC 18 Jan 2018
Updated at 1530 UTC 18 Jan 2018
Potential Impact None Slight Moderate High
Time<<19/16Z 19/17Z 19/18Z 19/19Z 19/20Z 19/21Z 19/22Z 19/23Z 20/00Z 20/01Z 20/02Z 20/03Z 20/04Z
Type PRVL PRVL
VIS >6 >6
CIG -- --
Cover FEW FEW
FltCat VFR VFR
WX -- --
WDir 270 270
WSpd 10 10
WGst 18 18

Raw TAF
KJFK 181339Z 1814/1918 32014G20KT P6SM SKC
  FM181900 30014G21KT P6SM FEW030
  FM190000 31012G18KT P6SM SKC
  FM190400 29010KT P6SM SKC
  FM190800 28006KT P6SM FEW030 SCT170
  FM191400 27010G18KT P6SM FEW200


METAR Board
Radar Display
Forecast Discussion

FOR SITUATIONAL AWARENESS. NOT TO BE USED FOR FLIGHT PLANNING PURPOSES.